sensor_id;sensor_type;location;lat;lon;timestamp;temperature;humidity
34776;DHT22;20989;52.566;13.346;2022-07-29T00:02:56;26.00;39.20
34776;DHT22;20989;52.566;13.346;2022-07-29T00:05:57;26.00;39.30
34776;DHT22;20989;52.566;13.346;2022-07-29T00:08:58;26.00;39.30
34776;DHT22;20989;52.566;13.346;2022-07-29T00:12:00;26.00;39.30
34776;DHT22;20989;52.566;13.346;2022-07-29T00:15:01;26.00;39.30
34776;DHT22;20989;52.566;13.346;2022-07-29T00:18:01;26.00;39.30
34776;DHT22;20989;52.566;13.346;2022-07-29T00:21:02;26.00;39.30
34776;DHT22;20989;52.566;13.346;2022-07-29T00:24:03;26.00;39.30
34776;DHT22;20989;52.566;13.346;2022-07-29T00:27:03;26.00;39.30
34776;DHT22;20989;52.566;13.346;2022-07-29T00:30:05;25.90;39.30
34776;DHT22;20989;52.566;13.346;2022-07-29T00:33:05;25.90;39.30
34776;DHT22;20989;52.566;13.346;2022-07-29T00:36:06;26.00;39.40
34776;DHT22;20989;52.566;13.346;2022-07-29T00:39:07;25.90;39.30
34776;DHT22;20989;52.566;13.346;2022-07-29T00:42:07;26.00;39.40
34776;DHT22;20989;52.566;13.346;2022-07-29T00:45:08;26.00;39.40
34776;DHT22;20989;52.566;13.346;2022-07-29T00:48:10;25.90;39.40
34776;DHT22;20989;52.566;13.346;2022-07-29T00:51:11;25.90;39.40
34776;DHT22;20989;52.566;13.346;2022-07-29T00:54:12;25.90;39.40
34776;DHT22;20989;52.566;13.346;2022-07-29T00:57:13;25.90;39.40
34776;DHT22;20989;52.566;13.346;2022-07-29T01:00:20;25.90;39.40
34776;DHT22;20989;52.566;13.346;2022-07-29T01:03:21;25.90;39.40
34776;DHT22;20989;52.566;13.346;2022-07-29T01:06:21;25.90;39.40
34776;DHT22;20989;52.566;13.346;2022-07-29T01:09:23;25.90;39.50
34776;DHT22;20989;52.566;13.346;2022-07-29T01:12:27;25.90;39.40
34776;DHT22;20989;52.566;13.346;2022-07-29T01:15:28;25.90;39.50
34776;DHT22;20989;52.566;13.346;2022-07-29T01:18:42;25.90;39.50
34776;DHT22;20989;52.566;13.346;2022-07-29T01:21:53;25.90;39.50
34776;DHT22;20989;52.566;13.346;2022-07-29T01:35:17;25.90;39.50
34776;DHT22;20989;52.566;13.346;2022-07-29T01:38:21;25.90;39.60
34776;DHT22;20989;52.566;13.346;2022-07-29T01:41:26;25.90;39.60
34776;DHT22;20989;52.566;13.346;2022-07-29T01:44:50;25.80;39.50
34776;DHT22;20989;52.566;13.346;2022-07-29T01:48:19;25.90;39.60
34776;DHT22;20989;52.566;13.346;2022-07-29T01:51:29;25.80;39.60
34776;DHT22;20989;52.566;13.346;2022-07-29T01:54:38;25.90;39.70
34776;DHT22;20989;52.566;13.346;2022-07-29T01:57:46;25.90;39.60
34776;DHT22;20989;52.566;13.346;2022-07-29T02:00:48;25.90;39.70
34776;DHT22;20989;52.566;13.346;2022-07-29T02:03:50;25.90;39.70
34776;DHT22;20989;52.566;13.346;2022-07-29T02:06:54;25.80;39.60
34776;DHT22;20989;52.566;13.346;2022-07-29T02:09:58;25.90;39.70
34776;DHT22;20989;52.566;13.346;2022-07-29T02:13:02;25.90;39.70
34776;DHT22;20989;52.566;13.346;2022-07-29T02:16:05;25.80;39.60
34776;DHT22;20989;52.566;13.346;2022-07-29T02:19:08;25.80;39.60
34776;DHT22;20989;52.566;13.346;2022-07-29T02:22:11;25.80;39.60
34776;DHT22;20989;52.566;13.346;2022-07-29T02:25:13;25.90;39.70
34776;DHT22;20989;52.566;13.346;2022-07-29T02:28:16;25.90;39.70
34776;DHT22;20989;52.566;13.346;2022-07-29T02:31:19;25.80;39.70
34776;DHT22;20989;52.566;13.346;2022-07-29T02:34:23;25.80;39.60
34776;DHT22;20989;52.566;13.346;2022-07-29T02:37:26;25.90;39.70
34776;DHT22;20989;52.566;13.346;2022-07-29T02:40:27;25.80;39.70
34776;DHT22;20989;52.566;13.346;2022-07-29T02:43:29;25.80;39.70
34776;DHT22;20989;52.566;13.346;2022-07-29T02:46:32;25.80;39.80
34776;DHT22;20989;52.566;13.346;2022-07-29T02:49:39;25.80;39.80
34776;DHT22;20989;52.566;13.346;2022-07-29T02:52:47;25.90;39.80
34776;DHT22;20989;52.566;13.346;2022-07-29T02:55:59;25.80;39.80
34776;DHT22;20989;52.566;13.346;2022-07-29T02:59:04;25.80;39.80
34776;DHT22;20989;52.566;13.346;2022-07-29T03:02:07;25.80;39.80
34776;DHT22;20989;52.566;13.346;2022-07-29T03:05:12;25.80;40.00
34776;DHT22;20989;52.566;13.346;2022-07-29T03:08:16;25.80;39.80
34776;DHT22;20989;52.566;13.346;2022-07-29T03:11:17;25.80;39.80
34776;DHT22;20989;52.566;13.346;2022-07-29T03:14:19;25.80;39.90
34776;DHT22;20989;52.566;13.346;2022-07-29T03:17:21;25.80;39.90
34776;DHT22;20989;52.566;13.346;2022-07-29T03:20:22;25.80;39.80
34776;DHT22;20989;52.566;13.346;2022-07-29T03:23:23;25.80;39.90
34776;DHT22;20989;52.566;13.346;2022-07-29T03:26:26;25.80;39.90
34776;DHT22;20989;52.566;13.346;2022-07-29T03:29:27;25.80;39.80
34776;DHT22;20989;52.566;13.346;2022-07-29T03:32:28;25.80;39.90
34776;DHT22;20989;52.566;13.346;2022-07-29T03:35:29;25.80;39.90
34776;DHT22;20989;52.566;13.346;2022-07-29T03:38:34;25.80;39.90
34776;DHT22;20989;52.566;13.346;2022-07-29T03:41:38;25.80;39.90
34776;DHT22;20989;52.566;13.346;2022-07-29T03:44:41;25.80;39.90
34776;DHT22;20989;52.566;13.346;2022-07-29T03:47:46;25.80;40.00
34776;DHT22;20989;52.566;13.346;2022-07-29T03:50:49;25.80;39.90
34776;DHT22;20989;52.566;13.346;2022-07-29T03:53:50;25.80;40.00
34776;DHT22;20989;52.566;13.346;2022-07-29T03:56:52;25.80;40.00
34776;DHT22;20989;52.566;13.346;2022-07-29T03:59:54;25.80;40.00
34776;DHT22;20989;52.566;13.346;2022-07-29T04:02:56;25.80;40.00
34776;DHT22;20989;52.566;13.346;2022-07-29T04:06:05;25.80;40.00
34776;DHT22;20989;52.566;13.346;2022-07-29T04:09:06;25.80;40.00
34776;DHT22;20989;52.566;13.346;2022-07-29T04:12:07;25.70;40.00
34776;DHT22;20989;52.566;13.346;2022-07-29T04:15:08;25.80;40.20
34776;DHT22;20989;52.566;13.346;2022-07-29T04:18:09;25.80;40.10
34776;DHT22;20989;52.566;13.346;2022-07-29T04:21:10;25.80;40.00
34776;DHT22;20989;52.566;13.346;2022-07-29T04:24:10;25.70;40.00
34776;DHT22;20989;52.566;13.346;2022-07-29T04:27:11;25.80;40.00
34776;DHT22;20989;52.566;13.346;2022-07-29T04:30:12;25.80;40.00
34776;DHT22;20989;52.566;13.346;2022-07-29T04:33:12;25.80;40.10
34776;DHT22;20989;52.566;13.346;2022-07-29T04:36:13;25.70;40.00
34776;DHT22;20989;52.566;13.346;2022-07-29T04:39:14;25.70;40.50
34776;DHT22;20989;52.566;13.346;2022-07-29T04:42:15;25.80;40.10
34776;DHT22;20989;52.566;13.346;2022-07-29T04:45:15;25.70;40.00
34776;DHT22;20989;52.566;13.346;2022-07-29T04:48:16;25.70;40.10
34776;DHT22;20989;52.566;13.346;2022-07-29T04:51:17;25.70;40.00
34776;DHT22;20989;52.566;13.346;2022-07-29T04:54:17;25.70;40.10
34776;DHT22;20989;52.566;13.346;2022-07-29T04:57:18;25.70;40.60
34776;DHT22;20989;52.566;13.346;2022-07-29T05:00:34;25.70;40.10
34776;DHT22;20989;52.566;13.346;2022-07-29T05:03:34;25.70;40.00
34776;DHT22;20989;52.566;13.346;2022-07-29T05:06:35;25.70;40.00
34776;DHT22;20989;52.566;13.346;2022-07-29T05:09:36;25.70;40.10
34776;DHT22;20989;52.566;13.346;2022-07-29T05:12:36;25.70;40.10
34776;DHT22;20989;52.566;13.346;2022-07-29T05:15:37;25.70;40.10
34776;DHT22;20989;52.566;13.346;2022-07-29T05:18:38;25.70;40.10
34776;DHT22;20989;52.566;13.346;2022-07-29T05:21:38;25.70;40.10
34776;DHT22;20989;52.566;13.346;2022-07-29T05:24:39;25.70;40.10
34776;DHT22;20989;52.566;13.346;2022-07-29T05:27:39;25.70;40.10
34776;DHT22;20989;52.566;13.346;2022-07-29T05:30:40;25.70;40.10
34776;DHT22;20989;52.566;13.346;2022-07-29T05:33:41;25.70;40.10
34776;DHT22;20989;52.566;13.346;2022-07-29T05:36:42;25.70;40.10
34776;DHT22;20989;52.566;13.346;2022-07-29T05:39:42;25.70;40.10
34776;DHT22;20989;52.566;13.346;2022-07-29T05:42:43;25.70;40.10
34776;DHT22;20989;52.566;13.346;2022-07-29T05:45:43;25.70;40.10
34776;DHT22;20989;52.566;13.346;2022-07-29T05:48:44;25.70;40.10
34776;DHT22;20989;52.566;13.346;2022-07-29T05:51:45;25.70;40.20
34776;DHT22;20989;52.566;13.346;2022-07-29T05:54:46;25.70;40.10
34776;DHT22;20989;52.566;13.346;2022-07-29T05:57:47;25.70;40.10
34776;DHT22;20989;52.566;13.346;2022-07-29T06:00:47;25.70;40.20
34776;DHT22;20989;52.566;13.346;2022-07-29T06:03:48;25.70;40.20
34776;DHT22;20989;52.566;13.346;2022-07-29T06:06:49;25.70;40.20
34776;DHT22;20989;52.566;13.346;2022-07-29T06:09:49;25.70;40.20
34776;DHT22;20989;52.566;13.346;2022-07-29T06:12:50;25.70;40.20
34776;DHT22;20989;52.566;13.346;2022-07-29T06:15:50;25.70;40.20
34776;DHT22;20989;52.566;13.346;2022-07-29T06:18:51;25.70;40.20
34776;DHT22;20989;52.566;13.346;2022-07-29T06:21:52;25.70;40.20
34776;DHT22;20989;52.566;13.346;2022-07-29T06:24:53;25.70;40.20
34776;DHT22;20989;52.566;13.346;2022-07-29T06:27:53;25.70;40.20
34776;DHT22;20989;52.566;13.346;2022-07-29T06:30:54;25.70;40.20
34776;DHT22;20989;52.566;13.346;2022-07-29T06:33:55;25.70;40.20
34776;DHT22;20989;52.566;13.346;2022-07-29T06:36:55;25.70;40.20
34776;DHT22;20989;52.566;13.346;2022-07-29T06:39:56;25.70;40.20
34776;DHT22;20989;52.566;13.346;2022-07-29T06:43:15;25.70;40.20
34776;DHT22;20989;52.566;13.346;2022-07-29T06:46:16;25.70;40.20
34776;DHT22;20989;52.566;13.346;2022-07-29T06:49:20;25.70;40.20
34776;DHT22;20989;52.566;13.346;2022-07-29T06:52:20;25.70;40.20
34776;DHT22;20989;52.566;13.346;2022-07-29T06:55:21;25.70;40.30
34776;DHT22;20989;52.566;13.346;2022-07-29T06:58:22;25.70;40.20
34776;DHT22;20989;52.566;13.346;2022-07-29T07:01:22;25.70;40.20
34776;DHT22;20989;52.566;13.346;2022-07-29T07:04:23;25.70;40.30
34776;DHT22;20989;52.566;13.346;2022-07-29T07:07:24;25.70;40.30
34776;DHT22;20989;52.566;13.346;2022-07-29T07:10:24;25.70;40.30
34776;DHT22;20989;52.566;13.346;2022-07-29T07:13:25;25.70;40.30
34776;DHT22;20989;52.566;13.346;2022-07-29T07:16:26;25.70;40.30
34776;DHT22;20989;52.566;13.346;2022-07-29T07:19:27;25.70;40.30
34776;DHT22;20989;52.566;13.346;2022-07-29T07:22:27;25.70;40.30
34776;DHT22;20989;52.566;13.346;2022-07-29T07:25:28;25.70;40.30
34776;DHT22;20989;52.566;13.346;2022-07-29T07:28:29;25.70;40.30
34776;DHT22;20989;52.566;13.346;2022-07-29T07:31:30;25.70;40.30
34776;DHT22;20989;52.566;13.346;2022-07-29T07:34:30;25.70;40.30
34776;DHT22;20989;52.566;13.346;2022-07-29T07:37:31;25.70;40.50
34776;DHT22;20989;52.566;13.346;2022-07-29T07:40:32;25.70;40.60
34776;DHT22;20989;52.566;13.346;2022-07-29T07:43:33;25.70;40.90
34776;DHT22;20989;52.566;13.346;2022-07-29T07:46:33;25.70;40.60
34776;DHT22;20989;52.566;13.346;2022-07-29T07:49:34;25.70;40.40
34776;DHT22;20989;52.566;13.346;2022-07-29T07:52:49;25.70;40.30
34776;DHT22;20989;52.566;13.346;2022-07-29T07:55:50;25.70;40.40
34776;DHT22;20989;52.566;13.346;2022-07-29T07:58:50;25.70;40.40
34776;DHT22;20989;52.566;13.346;2022-07-29T08:01:51;25.70;40.40
34776;DHT22;20989;52.566;13.346;2022-07-29T08:04:51;25.70;40.40
34776;DHT22;20989;52.566;13.346;2022-07-29T08:07:52;25.70;40.40
34776;DHT22;20989;52.566;13.346;2022-07-29T08:10:53;25.70;40.40
34776;DHT22;20989;52.566;13.346;2022-07-29T08:13:54;25.70;40.40
34776;DHT22;20989;52.566;13.346;2022-07-29T08:16:54;25.70;40.40
34776;DHT22;20989;52.566;13.346;2022-07-29T08:19:55;25.70;40.40
34776;DHT22;20989;52.566;13.346;2022-07-29T08:22:55;25.70;40.40
34776;DHT22;20989;52.566;13.346;2022-07-29T08:25:56;25.70;40.40
34776;DHT22;20989;52.566;13.346;2022-07-29T08:28:57;25.70;40.40
34776;DHT22;20989;52.566;13.346;2022-07-29T08:31:57;25.70;40.40
34776;DHT22;20989;52.566;13.346;2022-07-29T08:34:58;25.70;40.20
34776;DHT22;20989;52.566;13.346;2022-07-29T08:37:58;25.70;40.40
34776;DHT22;20989;52.566;13.346;2022-07-29T08:41:02;25.70;40.30
34776;DHT22;20989;52.566;13.346;2022-07-29T08:44:03;25.80;40.40
34776;DHT22;20989;52.566;13.346;2022-07-29T08:47:04;25.70;40.10
34776;DHT22;20989;52.566;13.346;2022-07-29T08:50:06;25.80;40.30
34776;DHT22;20989;52.566;13.346;2022-07-29T08:53:10;25.80;40.30
34776;DHT22;20989;52.566;13.346;2022-07-29T08:56:12;25.80;40.30
34776;DHT22;20989;52.566;13.346;2022-07-29T08:59:14;25.80;40.20
34776;DHT22;20989;52.566;13.346;2022-07-29T09:02:22;25.80;40.20
34776;DHT22;20989;52.566;13.346;2022-07-29T09:05:24;25.80;40.20
34776;DHT22;20989;52.566;13.346;2022-07-29T09:08:26;25.80;40.20
34776;DHT22;20989;52.566;13.346;2022-07-29T09:11:27;25.80;40.20
34776;DHT22;20989;52.566;13.346;2022-07-29T09:14:28;25.80;40.20
34776;DHT22;20989;52.566;13.346;2022-07-29T09:17:46;25.80;40.20
34776;DHT22;20989;52.566;13.346;2022-07-29T09:20:52;25.80;40.10
34776;DHT22;20989;52.566;13.346;2022-07-29T09:24:12;25.80;40.60
34776;DHT22;20989;52.566;13.346;2022-07-29T09:30:23;25.80;40.10
34776;DHT22;20989;52.566;13.346;2022-07-29T09:33:30;25.80;40.10
34776;DHT22;20989;52.566;13.346;2022-07-29T09:36:45;25.80;40.10
34776;DHT22;20989;52.566;13.346;2022-07-29T09:39:46;25.80;39.90
34776;DHT22;20989;52.566;13.346;2022-07-29T09:42:47;25.80;40.10
34776;DHT22;20989;52.566;13.346;2022-07-29T09:45:48;25.90;40.20
34776;DHT22;20989;52.566;13.346;2022-07-29T09:49:18;25.80;40.20
34776;DHT22;20989;52.566;13.346;2022-07-29T09:52:19;25.80;40.20
34776;DHT22;20989;52.566;13.346;2022-07-29T09:55:19;25.90;40.20
34776;DHT22;20989;52.566;13.346;2022-07-29T09:58:21;25.80;40.20
34776;DHT22;20989;52.566;13.346;2022-07-29T10:01:29;25.80;40.20
34776;DHT22;20989;52.566;13.346;2022-07-29T10:04:40;25.80;40.20
34776;DHT22;20989;52.566;13.346;2022-07-29T10:07:49;25.80;40.30
34776;DHT22;20989;52.566;13.346;2022-07-29T10:10:50;25.80;40.20
34776;DHT22;20989;52.566;13.346;2022-07-29T10:13:50;25.90;40.30
34776;DHT22;20989;52.566;13.346;2022-07-29T10:16:51;25.90;40.40
34776;DHT22;20989;52.566;13.346;2022-07-29T10:19:52;25.90;40.30
34776;DHT22;20989;52.566;13.346;2022-07-29T10:22:54;25.90;40.40
34776;DHT22;20989;52.566;13.346;2022-07-29T10:25:55;25.90;40.40
34776;DHT22;20989;52.566;13.346;2022-07-29T10:28:56;25.90;40.40
34776;DHT22;20989;52.566;13.346;2022-07-29T10:32:16;25.90;40.40
34776;DHT22;20989;52.566;13.346;2022-07-29T10:35:47;25.90;40.40
34776;DHT22;20989;52.566;13.346;2022-07-29T10:42:40;25.90;40.40
34776;DHT22;20989;52.566;13.346;2022-07-29T10:45:41;25.90;40.30
34776;DHT22;20989;52.566;13.346;2022-07-29T10:49:11;25.90;40.40
34776;DHT22;20989;52.566;13.346;2022-07-29T10:52:12;25.90;40.30
34776;DHT22;20989;52.566;13.346;2022-07-29T10:55:35;25.90;40.20
34776;DHT22;20989;52.566;13.346;2022-07-29T10:58:38;25.90;40.20
34776;DHT22;20989;52.566;13.346;2022-07-29T11:01:39;26.00;40.20
34776;DHT22;20989;52.566;13.346;2022-07-29T11:14:59;26.00;40.40
34776;DHT22;20989;52.566;13.346;2022-07-29T11:21:02;26.00;40.30
34776;DHT22;20989;52.566;13.346;2022-07-29T11:24:20;26.00;40.40
34776;DHT22;20989;52.566;13.346;2022-07-29T11:27:22;26.00;40.30
34776;DHT22;20989;52.566;13.346;2022-07-29T11:30:57;26.00;40.30
34776;DHT22;20989;52.566;13.346;2022-07-29T11:37:20;26.00;40.20
34776;DHT22;20989;52.566;13.346;2022-07-29T11:40:22;26.00;40.20
34776;DHT22;20989;52.566;13.346;2022-07-29T11:43:55;26.10;40.20
34776;DHT22;20989;52.566;13.346;2022-07-29T11:46:58;26.00;40.20
34776;DHT22;20989;52.566;13.346;2022-07-29T11:50:00;26.00;40.30
34776;DHT22;20989;52.566;13.346;2022-07-29T11:53:10;26.10;40.20
34776;DHT22;20989;52.566;13.346;2022-07-29T11:56:13;26.10;40.30
34776;DHT22;20989;52.566;13.346;2022-07-29T11:59:14;26.10;40.30
34776;DHT22;20989;52.566;13.346;2022-07-29T12:02:15;26.10;40.20
34776;DHT22;20989;52.566;13.346;2022-07-29T12:05:16;26.10;40.30
34776;DHT22;20989;52.566;13.346;2022-07-29T12:08:20;26.10;40.30
34776;DHT22;20989;52.566;13.346;2022-07-29T12:11:22;26.10;40.20
34776;DHT22;20989;52.566;13.346;2022-07-29T12:14:30;26.10;40.20
34776;DHT22;20989;52.566;13.346;2022-07-29T12:17:33;26.10;40.30
34776;DHT22;20989;52.566;13.346;2022-07-29T12:20:33;26.10;40.30
34776;DHT22;20989;52.566;13.346;2022-07-29T12:23:34;26.10;40.20
34776;DHT22;20989;52.566;13.346;2022-07-29T12:26:35;26.10;40.20
34776;DHT22;20989;52.566;13.346;2022-07-29T12:29:37;26.10;40.20
34776;DHT22;20989;52.566;13.346;2022-07-29T12:32:39;26.10;40.20
34776;DHT22;20989;52.566;13.346;2022-07-29T12:35:42;26.10;40.20
34776;DHT22;20989;52.566;13.346;2022-07-29T12:38:44;26.10;40.30
34776;DHT22;20989;52.566;13.346;2022-07-29T12:41:45;26.10;40.20
34776;DHT22;20989;52.566;13.346;2022-07-29T12:44:50;26.10;40.30
34776;DHT22;20989;52.566;13.346;2022-07-29T12:47:52;26.10;40.30
34776;DHT22;20989;52.566;13.346;2022-07-29T12:50:58;26.10;40.20
34776;DHT22;20989;52.566;13.346;2022-07-29T12:54:17;26.20;40.30
34776;DHT22;20989;52.566;13.346;2022-07-29T12:57:18;26.10;40.20
34776;DHT22;20989;52.566;13.346;2022-07-29T13:00:23;26.20;40.30
34776;DHT22;20989;52.566;13.346;2022-07-29T13:03:24;26.10;40.30
34776;DHT22;20989;52.566;13.346;2022-07-29T13:09:40;26.20;40.40
34776;DHT22;20989;52.566;13.346;2022-07-29T13:13:01;26.20;40.40
34776;DHT22;20989;52.566;13.346;2022-07-29T13:16:07;26.10;40.30
34776;DHT22;20989;52.566;13.346;2022-07-29T13:19:10;26.20;40.40
34776;DHT22;20989;52.566;13.346;2022-07-29T13:22:16;26.10;40.40
34776;DHT22;20989;52.566;13.346;2022-07-29T13:25:31;26.20;40.40
34776;DHT22;20989;52.566;13.346;2022-07-29T13:28:32;26.20;40.40
34776;DHT22;20989;52.566;13.346;2022-07-29T13:31:32;26.20;40.40
34776;DHT22;20989;52.566;13.346;2022-07-29T13:34:33;26.20;40.40
34776;DHT22;20989;52.566;13.346;2022-07-29T13:37:35;26.20;40.40
34776;DHT22;20989;52.566;13.346;2022-07-29T13:40:38;26.20;40.50
34776;DHT22;20989;52.566;13.346;2022-07-29T13:43:39;26.20;40.50
34776;DHT22;20989;52.566;13.346;2022-07-29T13:46:39;26.20;40.50
34776;DHT22;20989;52.566;13.346;2022-07-29T13:49:40;26.20;40.50
34776;DHT22;20989;52.566;13.346;2022-07-29T13:52:41;26.20;40.50
34776;DHT22;20989;52.566;13.346;2022-07-29T13:55:41;26.20;40.50
34776;DHT22;20989;52.566;13.346;2022-07-29T13:58:42;26.20;40.50
34776;DHT22;20989;52.566;13.346;2022-07-29T14:01:43;26.20;40.50
34776;DHT22;20989;52.566;13.346;2022-07-29T14:04:43;26.20;40.50
34776;DHT22;20989;52.566;13.346;2022-07-29T14:07:44;26.20;40.50
34776;DHT22;20989;52.566;13.346;2022-07-29T14:10:44;26.20;40.50
34776;DHT22;20989;52.566;13.346;2022-07-29T14:13:45;26.20;40.50
34776;DHT22;20989;52.566;13.346;2022-07-29T14:16:46;26.20;40.50
34776;DHT22;20989;52.566;13.346;2022-07-29T14:19:47;26.20;40.50
34776;DHT22;20989;52.566;13.346;2022-07-29T14:22:48;26.20;40.50
34776;DHT22;20989;52.566;13.346;2022-07-29T14:25:48;26.20;40.50
34776;DHT22;20989;52.566;13.346;2022-07-29T14:28:49;26.20;40.50
34776;DHT22;20989;52.566;13.346;2022-07-29T14:31:50;26.20;40.50
34776;DHT22;20989;52.566;13.346;2022-07-29T14:34:50;26.20;40.50
34776;DHT22;20989;52.566;13.346;2022-07-29T14:37:51;26.20;40.50
34776;DHT22;20989;52.566;13.346;2022-07-29T14:40:52;26.20;40.50
34776;DHT22;20989;52.566;13.346;2022-07-29T14:43:52;26.20;40.50
34776;DHT22;20989;52.566;13.346;2022-07-29T14:46:53;26.20;40.50
34776;DHT22;20989;52.566;13.346;2022-07-29T14:49:54;26.20;40.50
34776;DHT22;20989;52.566;13.346;2022-07-29T14:52:54;26.20;40.50
34776;DHT22;20989;52.566;13.346;2022-07-29T14:55:55;26.30;40.60
34776;DHT22;20989;52.566;13.346;2022-07-29T14:58:57;26.30;40.60
34776;DHT22;20989;52.566;13.346;2022-07-29T15:01:57;26.30;40.70
34776;DHT22;20989;52.566;13.346;2022-07-29T15:04:58;26.30;40.60
34776;DHT22;20989;52.566;13.346;2022-07-29T15:07:59;26.30;40.60
34776;DHT22;20989;52.566;13.346;2022-07-29T15:11:00;26.30;40.70
34776;DHT22;20989;52.566;13.346;2022-07-29T15:14:01;26.30;40.60
34776;DHT22;20989;52.566;13.346;2022-07-29T15:17:01;26.30;40.60
34776;DHT22;20989;52.566;13.346;2022-07-29T15:20:03;26.30;40.60
34776;DHT22;20989;52.566;13.346;2022-07-29T15:23:04;26.30;40.60
34776;DHT22;20989;52.566;13.346;2022-07-29T15:26:05;26.30;40.60
34776;DHT22;20989;52.566;13.346;2022-07-29T15:29:05;26.30;40.60
34776;DHT22;20989;52.566;13.346;2022-07-29T15:32:06;26.30;40.60
34776;DHT22;20989;52.566;13.346;2022-07-29T15:35:07;26.30;40.50
34776;DHT22;20989;52.566;13.346;2022-07-29T15:38:07;26.30;40.60
34776;DHT22;20989;52.566;13.346;2022-07-29T15:41:08;26.30;40.60
34776;DHT22;20989;52.566;13.346;2022-07-29T15:44:09;26.30;40.60
34776;DHT22;20989;52.566;13.346;2022-07-29T15:47:09;26.30;40.60
34776;DHT22;20989;52.566;13.346;2022-07-29T15:50:10;26.30;40.60
34776;DHT22;20989;52.566;13.346;2022-07-29T15:53:15;26.30;40.60
34776;DHT22;20989;52.566;13.346;2022-07-29T15:56:15;26.30;40.60
34776;DHT22;20989;52.566;13.346;2022-07-29T15:59:17;26.30;40.60
34776;DHT22;20989;52.566;13.346;2022-07-29T16:02:18;26.40;40.60
34776;DHT22;20989;52.566;13.346;2022-07-29T16:05:19;26.30;40.60
34776;DHT22;20989;52.566;13.346;2022-07-29T16:08:19;26.30;40.60
34776;DHT22;20989;52.566;13.346;2022-07-29T16:11:20;26.30;40.60
34776;DHT22;20989;52.566;13.346;2022-07-29T16:14:21;26.40;40.70
34776;DHT22;20989;52.566;13.346;2022-07-29T16:17:22;26.30;40.60
34776;DHT22;20989;52.566;13.346;2022-07-29T16:20:23;26.30;40.60
34776;DHT22;20989;52.566;13.346;2022-07-29T16:23:23;26.40;40.70
34776;DHT22;20989;52.566;13.346;2022-07-29T16:26:24;26.30;40.60
34776;DHT22;20989;52.566;13.346;2022-07-29T16:29:25;26.30;40.60
34776;DHT22;20989;52.566;13.346;2022-07-29T16:32:25;26.30;40.60
34776;DHT22;20989;52.566;13.346;2022-07-29T16:35:26;26.30;40.60
34776;DHT22;20989;52.566;13.346;2022-07-29T16:38:27;26.30;40.60
34776;DHT22;20989;52.566;13.346;2022-07-29T16:41:27;26.30;40.50
34776;DHT22;20989;52.566;13.346;2022-07-29T16:44:29;26.40;40.60
34776;DHT22;20989;52.566;13.346;2022-07-29T16:47:29;26.30;40.50
34776;DHT22;20989;52.566;13.346;2022-07-29T16:50:31;26.40;40.70
34776;DHT22;20989;52.566;13.346;2022-07-29T16:53:31;26.40;40.60
34776;DHT22;20989;52.566;13.346;2022-07-29T16:56:32;26.40;40.70
34776;DHT22;20989;52.566;13.346;2022-07-29T16:59:33;26.30;40.60
34776;DHT22;20989;52.566;13.346;2022-07-29T17:02:34;26.40;40.60
34776;DHT22;20989;52.566;13.346;2022-07-29T17:05:34;26.40;40.60
34776;DHT22;20989;52.566;13.346;2022-07-29T17:08:35;26.40;40.60
34776;DHT22;20989;52.566;13.346;2022-07-29T17:11:37;26.40;40.70
34776;DHT22;20989;52.566;13.346;2022-07-29T17:14:37;26.40;40.70
34776;DHT22;20989;52.566;13.346;2022-07-29T17:17:38;26.40;40.70
34776;DHT22;20989;52.566;13.346;2022-07-29T17:20:42;26.40;40.60
34776;DHT22;20989;52.566;13.346;2022-07-29T17:23:43;26.40;40.70
34776;DHT22;20989;52.566;13.346;2022-07-29T17:26:44;26.40;40.70
34776;DHT22;20989;52.566;13.346;2022-07-29T17:29:45;26.30;40.70
34776;DHT22;20989;52.566;13.346;2022-07-29T17:32:45;26.40;40.70
34776;DHT22;20989;52.566;13.346;2022-07-29T17:35:46;26.40;40.70
34776;DHT22;20989;52.566;13.346;2022-07-29T17:39:06;26.30;40.60
34776;DHT22;20989;52.566;13.346;2022-07-29T17:42:09;26.40;40.70
34776;DHT22;20989;52.566;13.346;2022-07-29T17:45:10;26.40;40.70
34776;DHT22;20989;52.566;13.346;2022-07-29T17:48:10;26.40;40.70
34776;DHT22;20989;52.566;13.346;2022-07-29T17:51:11;26.30;40.70
34776;DHT22;20989;52.566;13.346;2022-07-29T17:54:12;26.40;40.70
34776;DHT22;20989;52.566;13.346;2022-07-29T17:57:13;26.40;40.70
34776;DHT22;20989;52.566;13.346;2022-07-29T18:00:14;26.40;40.80
34776;DHT22;20989;52.566;13.346;2022-07-29T18:03:15;26.30;40.70
34776;DHT22;20989;52.566;13.346;2022-07-29T18:06:15;26.30;40.70
34776;DHT22;20989;52.566;13.346;2022-07-29T18:09:16;26.40;40.80
34776;DHT22;20989;52.566;13.346;2022-07-29T18:12:16;26.30;40.70
34776;DHT22;20989;52.566;13.346;2022-07-29T18:15:17;26.30;40.80
34776;DHT22;20989;52.566;13.346;2022-07-29T18:18:18;26.30;40.80
34776;DHT22;20989;52.566;13.346;2022-07-29T18:21:18;26.30;40.80
34776;DHT22;20989;52.566;13.346;2022-07-29T18:24:19;26.30;40.80
34776;DHT22;20989;52.566;13.346;2022-07-29T18:27:19;26.30;40.80
34776;DHT22;20989;52.566;13.346;2022-07-29T18:30:20;26.30;40.80
34776;DHT22;20989;52.566;13.346;2022-07-29T18:33:21;26.30;40.80
34776;DHT22;20989;52.566;13.346;2022-07-29T18:36:21;26.30;40.80
34776;DHT22;20989;52.566;13.346;2022-07-29T18:39:22;26.30;40.80
34776;DHT22;20989;52.566;13.346;2022-07-29T18:42:23;26.30;40.80
34776;DHT22;20989;52.566;13.346;2022-07-29T18:45:23;26.30;40.80
34776;DHT22;20989;52.566;13.346;2022-07-29T18:48:24;26.30;40.80
34776;DHT22;20989;52.566;13.346;2022-07-29T18:51:25;26.30;40.80
34776;DHT22;20989;52.566;13.346;2022-07-29T18:54:25;26.30;40.80
34776;DHT22;20989;52.566;13.346;2022-07-29T18:57:26;26.30;40.80
34776;DHT22;20989;52.566;13.346;2022-07-29T19:00:27;26.30;40.80
34776;DHT22;20989;52.566;13.346;2022-07-29T19:03:28;26.30;40.80
34776;DHT22;20989;52.566;13.346;2022-07-29T19:06:29;26.30;40.80
34776;DHT22;20989;52.566;13.346;2022-07-29T19:09:29;26.30;40.90
34776;DHT22;20989;52.566;13.346;2022-07-29T19:12:30;26.30;40.80
34776;DHT22;20989;52.566;13.346;2022-07-29T19:15:31;26.30;40.90
34776;DHT22;20989;52.566;13.346;2022-07-29T19:18:31;26.30;40.80
34776;DHT22;20989;52.566;13.346;2022-07-29T19:21:32;26.30;40.90
34776;DHT22;20989;52.566;13.346;2022-07-29T19:24:33;26.30;40.80
34776;DHT22;20989;52.566;13.346;2022-07-29T19:27:33;26.30;40.80
34776;DHT22;20989;52.566;13.346;2022-07-29T19:30:34;26.30;40.90
34776;DHT22;20989;52.566;13.346;2022-07-29T19:33:34;26.30;40.90